• Join FlightAware (Why Join?)
  • Login
  • US Flag 
10:13PM EDT


 

Airport Tracker/Info


-or-


 

Live Flight TrackerFlight Track Log ✈ GJS3657 ✈ 26-Jul-2013 ✈ KORD - KPWM

Flight Track Log - Related Links

Times and Time Zones

All times are in EDT time to prevent confusion due to time zone crossing. See the GJS3657 flight status page for this flight to view local times or setup timezone preferences in your user account.

Time Position Orientation Groundspeed Altitude Reporting Facility
EDT Latitude Longitude Course Direction KTS MPH feet Rate Location/Type
11:53PM 42.0000 -87.9333 20° North 155 178 1,300  Level Chicago TRACON
11:54PM 42.0333 -87.9167 20° North 201 231 3,200 1,920 Climbing Chicago TRACON
11:55PM 42.0614 -87.8733 49° Northeast 202 232 4,700 1,500 Climbing Chicago Center
11:56PM 42.1186 -87.8117 39° Northeast 252 290 6,000 1,800 Climbing Chicago Center
11:57PM 42.1867 -87.7503 34° Northeast 293 337 8,400 2,460 Climbing Chicago Center
11:58PM 42.2581 -87.6886 33° Northeast 305 351 11,100 2,400 Climbing Chicago Center
11:59PM 42.2797 -87.5706 76° East 325 374 13,400 2,100 Climbing Chicago Center
12:00AM 42.2792 -87.4031 90° East 370 426 15,400 1,920 Climbing Chicago Center
12:01AM 42.2794 -87.2581 90° East 387 445 17,400 1,860 Climbing Chicago Center
12:02AM 42.2794 -87.1078 90° East 399 459 19,200 1,680 Climbing Chicago Center
12:03AM 42.2817 -86.9533 89° East 408 470 20,900 1,500 Climbing Chicago Center
12:04AM 42.2914 -86.7936 85° East 423 487 22,300 1,260 Climbing Chicago Center
12:05AM 42.2956 -86.6431 88° East 438 504 23,500 1,140 Climbing Chicago Center
12:06AM 42.3019 -86.4736 87° East 456 525 24,700 1,140 Climbing Chicago Center
12:07AM 42.3081 -86.2981 87° East 468 539 25,800 1,140 Climbing Chicago Center
12:08AM 42.3150 -86.0803 87° East 485 558 27,000 1,080 Climbing Chicago Center
12:09AM 42.3136 -85.8953 91° East 494 568 28,100 1,020 Climbing Chicago Center
12:10AM 42.3111 -85.7083 91° East 501 577 29,100 960 Climbing Chicago Center
12:11AM 42.3089 -85.5181 91° East 508 585 30,100 960 Climbing Chicago Center
12:12AM 42.3064 -85.3264 91° East 513 590 31,100 960 Climbing Chicago Center
12:13AM 42.3022 -85.1375 92° East 509 586 32,100 960 Climbing Chicago Center
12:15AM 42.2978 -84.7578 91° East 509 586 34,100 840 Climbing Chicago Center
12:16AM 42.3189 -84.5683 81° East 510 587 34,800 600 Climbing Chicago Center
12:17AM 42.3400 -84.3772 81° East 516 594 35,400 540 Climbing Chicago Center
12:18AM 42.3614 -84.1811 82° East 525 604 35,900 540 Climbing Chicago Center
12:19AM 42.3819 -83.9825 82° East 533 613 36,500 540 Climbing Chicago Center
12:20AM 42.4039 -83.7822 81° East 539 620 37,100 600 Climbing Chicago Center
12:21AM 42.4231 -83.5825 83° East 538 619 37,800 720 Climbing Chicago Center
12:22AM 42.4469 -83.3469 82° East 531 611 38,600 540 Climbing Chicago Center
12:23AM 42.4664 -83.1533 82° East 524 603 39,000 120 Climbing Chicago Center
12:24AM 42.4861 -82.9369 83° East 516 594 39,000  Level Cleveland Center
12:25AM 42.5025 -82.7461 83° East 516 594 39,000  Level Cleveland Center
12:26AM 42.5203 -82.5550 83° East 516 594 39,000  Level Cleveland Center
12:27AM 42.5381 -82.3697 83° East 506 582 39,000  Level Cleveland Center
12:28AM 42.5556 -82.1786 83° East 501 577 39,000  Level Cleveland Center
12:29AM 42.5703 -81.9900 84° East 501 577 39,000  Level Cleveland Center
12:30AM 42.5872 -81.8042 83° East 501 577 39,000  Level Cleveland Center
12:31AM 42.6058 -81.6017 83° East 495 570 39,000  Level Cleveland Center
12:32AM 42.6219 -81.4156 83° East 505 581 39,000  Level Cleveland Center
12:33AM 42.6356 -81.2294 84° East 496 571 39,000  Level Cleveland Center
12:34AM 42.6511 -81.0433 83° East 491 565 39,000  Level Cleveland Center
12:35AM 42.6642 -80.8797 84° East 491 565 39,000  Level Cleveland Center
12:36AM 42.6769 -80.6933 85° East 497 572 39,000  Level Cleveland Center
12:37AM 42.6914 -80.5125 84° East 497 572 39,000  Level Cleveland Center
12:38AM 42.7058 -80.3261 84° East 497 572 39,000  Level Cleveland Center
12:39AM 42.7200 -80.1453 84° East 491 565 39,000  Level Cleveland Center
12:40AM 42.7356 -79.9444 84° East 491 565 39,000  Level Cleveland Center
12:41AM 42.7469 -79.7578 85° East 486 559 39,000  Level Cleveland Center
12:42AM 42.7600 -79.5764 84° East 486 559 39,000  Level Cleveland Center
12:43AM 42.7708 -79.3925 85° East 486 559 39,000  Level Cleveland Center
12:44AM 42.7814 -79.2083 85° East 481 554 39,000  Level Cleveland Center
12:45AM 42.7936 -79.0269 85° East 481 554 39,000  Level Cleveland Center
12:46AM 42.8036 -78.8456 86° East 481 554 39,000  Level Cleveland Center
12:47AM 42.8133 -78.6642 86° East 481 554 39,000  Level Cleveland Center
12:48AM 42.8247 -78.4828 85° East 481 554 39,000  Level Cleveland Center
12:49AM 42.8339 -78.3042 86° East 481 554 39,000  Level Cleveland Center
12:50AM 42.8431 -78.1481 85° East 476 548 39,000  Level Cleveland Center
12:51AM 42.8517 -77.9692 86° East 476 548 39,000  Level Cleveland Center
12:52AM 42.8622 -77.7903 85° East 476 548 39,000  Level Cleveland Center
12:54AM 42.8756 -77.5042 86° East 476 548 39,000  Level Boston Center
12:55AM 42.8833 -77.3233 87° East 476 548 39,000  Level Boston Center
12:56AM 42.8908 -77.1481 87° East 471 542 39,000  Level Boston Center
12:57AM 42.8981 -76.9700 87° East 471 542 39,000  Level Boston Center
12:58AM 42.9050 -76.7889 87° East 471 542 39,000  Level Boston Center
12:59AM 42.9158 -76.5572 86° East 471 542 39,000  Level Boston Center
01:00AM 42.9222 -76.3789 87° East 476 548 39,000 -60 Level Boston Center
01:01AM 42.9261 -76.1975 88° East 476 548 38,900  Descending Boston Center
01:02AM 42.9361 -76.0167 86° East 476 548 39,000  Climbing Boston Center
01:03AM 42.9561 -75.8389 81° East 476 548 39,000  Level Boston Center
01:04AM 42.9822 -75.6644 78° East 476 548 39,000  Level Boston Center
01:05AM 42.9961 -75.5344 82° East 482 555 39,000  Level Boston Center
01:06AM 43.0228 -75.3172 80° East 482 555 39,000  Level Boston Center
01:07AM 43.0458 -75.1392 80° East 482 555 39,000  Level Boston Center
01:08AM 43.0686 -74.9583 80° East 482 555 39,000  Level Boston Center
01:09AM 43.0892 -74.7772 81° East 482 555 39,000  Level Boston Center
01:10AM 43.1117 -74.5958 80° East 482 555 39,000  Level Boston Center
01:11AM 43.1336 -74.4147 81° East 482 555 39,000  Level Boston Center
01:12AM 43.1533 -74.2303 82° East 482 555 39,000  Level Boston Center
01:13AM 43.1747 -74.0514 81° East 482 555 39,000  Level Boston Center
01:14AM 43.1939 -73.8669 82° East 482 555 39,000  Level Boston Center
01:15AM 43.2169 -73.6681 81° East 482 555 39,000 -60 Level Boston Center
01:16AM 43.2356 -73.4917 82° East 477 549 38,900 -960 Descending Boston Center
01:17AM 43.2556 -73.3353 80° East 477 549 37,100 -2,040 Descending Boston Center
01:18AM 43.2756 -73.1531 81° East 472 543 34,900 -2,220 Descending Boston Center
01:19AM 43.2933 -72.9736 82° East 472 543 32,700 -2,220 Descending Boston Center
01:20AM 43.3128 -72.7967 81° East 472 543 30,500 -2,280 Descending Boston Center
01:21AM 43.3297 -72.6200 82° East 472 543 28,300 -2,220 Descending Boston Center
01:22AM 43.3467 -72.4486 82° East 460 529 26,100 -2,100 Descending Boston Center
01:23AM 43.3611 -72.2803 83° East 454 522 24,100 -2,040 Descending Boston Center
01:24AM 43.3775 -72.1203 82° East 435 501 22,100 -2,040 Descending Boston Center
01:25AM 43.3933 -71.9572 82° East 430 495 20,100 -2,100 Descending Boston Center
01:26AM 43.4072 -71.7886 83° East 413 475 17,900 -1,920 Descending Boston Center
01:27AM 43.4208 -71.6425 83° East 396 456 16,300 -1,680 Descending Boston Center
01:28AM 43.4322 -71.4967 84° East 385 443 14,600 -1,560 Descending Boston Center
01:29AM 43.4456 -71.3592 82° East 376 433 13,200 -1,440 Descending Boston Center
01:30AM 43.4589 -71.2189 82° East 370 426 11,800 -1,140 Descending Boston Center
01:31AM 43.4803 -71.0894 77° East 357 411 11,000 -420 Descending Boston Center
01:32AM 43.5100 -70.9686 71° East 338 389 11,000 -180 Level Boston Center
01:33AM 43.5400 -70.8647 68° East 297 342 10,700 -1,380 Descending Boston Center
01:34AM 43.5825 -70.7778 56° Northeast 274 315 8,300 -2,460 Descending Boston Center
01:35AM 43.6531 -70.7528 14° North 249 287 5,900 -2,340 Descending Boston Center
01:36AM 43.6661 -70.6578 79° East 227 261 3,700 -1,620 Descending Boston Center
01:37AM 43.6625 -70.5658 93° East 232 267 2,700 -660 Descending Boston Center
01:38AM 43.6572 -70.4886 95° East 212 244 2,400 -600 Descending Boston Center
01:39AM 43.6517 -70.4228 97° East 189 217 1,500 -960 Descending Boston Center
01:40AM 43.6486 -70.3683 94° East 149 171 600 -660 Descending Boston Center
01:41AM 43.6458 -70.3197 94° East 144 166 200 -420 Descending Boston Center
01:43AM 43.6456 -70.3086 105° East  Level Estimated